createdAt,value
2018-12-07T00:01:18.551Z,36.33
2018-12-07T00:03:46.857Z,38.83
2018-12-07T00:06:15.053Z,39.03
2018-12-07T00:08:43.258Z,38.10
2018-12-07T00:11:11.454Z,40.70
2018-12-07T00:13:39.855Z,44.10
2018-12-07T00:16:08.045Z,40.43
2018-12-07T00:18:36.233Z,36.57
2018-12-07T00:21:04.432Z,38.47
2018-12-07T00:23:32.613Z,38.83
2018-12-07T00:26:00.814Z,36.67
2018-12-07T00:28:29.028Z,34.17
2018-12-07T00:30:57.212Z,37.23
2018-12-07T00:33:25.394Z,44.83
2018-12-07T00:35:53.604Z,36.13
2018-12-07T00:38:21.798Z,36.13
2018-12-07T00:40:49.979Z,33.27
2018-12-07T00:43:18.291Z,39.90
2018-12-07T00:45:46.478Z,38.53
2018-12-07T00:48:14.758Z,35.57
2018-12-07T00:50:43.073Z,34.83
2018-12-07T00:53:11.265Z,35.00
2018-12-07T00:55:39.791Z,39.53
2018-12-07T00:58:08.112Z,37.67
2018-12-07T01:00:36.293Z,32.93
2018-12-07T01:03:05.472Z,38.17
2018-12-07T01:05:33.693Z,41.77
2018-12-07T01:08:01.878Z,36.57
2018-12-07T01:10:30.077Z,31.33
2018-12-07T01:12:58.292Z,35.50
2018-12-07T01:15:26.496Z,39.83
2018-12-07T01:17:54.670Z,30.13
2018-12-07T01:20:22.885Z,37.53
2018-12-07T01:22:51.067Z,37.70
2018-12-07T01:25:19.321Z,35.63
2018-12-07T01:27:47.714Z,39.10
2018-12-07T01:30:15.880Z,37.17
2018-12-07T01:32:44.088Z,43.00
2018-12-07T01:35:12.299Z,37.47
2018-12-07T01:37:40.479Z,37.63
2018-12-07T01:40:08.828Z,36.83
2018-12-07T01:42:37.039Z,37.07
2018-12-07T01:45:05.880Z,38.43
2018-12-07T01:47:36.097Z,34.33
2018-12-07T01:50:05.184Z,32.20
2018-12-07T01:52:33.357Z,32.43
2018-12-07T01:55:01.556Z,31.00
2018-12-07T01:57:29.768Z,33.73
2018-12-07T01:59:57.965Z,33.37
2018-12-07T02:02:26.146Z,34.93
2018-12-07T02:04:54.363Z,32.57
2018-12-07T02:07:33.267Z,31.23
2018-12-07T02:10:01.491Z,26.50
2018-12-07T02:12:29.671Z,32.87
2018-12-07T02:14:57.891Z,33.67
2018-12-07T02:17:26.269Z,31.03
2018-12-07T02:19:54.451Z,33.50
2018-12-07T02:22:22.632Z,28.17
2018-12-07T02:24:50.985Z,29.43
2018-12-07T02:27:19.171Z,32.87
2018-12-07T02:29:47.361Z,34.40
2018-12-07T02:32:15.570Z,37.30
2018-12-07T02:34:43.748Z,31.90
2018-12-07T02:37:11.951Z,33.27
2018-12-07T02:39:40.261Z,29.33
2018-12-07T02:42:08.536Z,36.40
2018-12-07T02:44:36.820Z,35.67
2018-12-07T02:47:05.045Z,44.90
2018-12-07T02:49:33.232Z,45.37
2018-12-07T02:52:01.497Z,37.93
2018-12-07T02:54:29.718Z,41.60
2018-12-07T02:56:57.894Z,40.50
2018-12-07T02:59:26.079Z,36.13
2018-12-07T03:01:54.296Z,33.70
2018-12-07T03:04:22.648Z,33.60
2018-12-07T03:06:50.826Z,39.77
2018-12-07T03:09:19.173Z,42.77
2018-12-07T03:11:47.374Z,43.50
2018-12-07T03:14:15.557Z,45.70
2018-12-07T03:16:43.926Z,42.63
2018-12-07T03:19:12.122Z,47.27
2018-12-07T03:21:40.303Z,45.07
2018-12-07T03:24:08.730Z,46.10
2018-12-07T03:26:36.977Z,42.70
2018-12-07T03:29:05.219Z,41.87
2018-12-07T03:31:33.442Z,50.03
2018-12-07T03:34:02.523Z,46.53
2018-12-07T03:36:30.907Z,45.50
2018-12-07T03:38:59.107Z,45.10
2018-12-07T03:41:27.313Z,45.57
2018-12-07T03:43:55.484Z,45.47
2018-12-07T03:46:23.840Z,43.83
2018-12-07T03:48:52.044Z,43.13
2018-12-07T03:51:20.233Z,43.10
2018-12-07T03:53:48.561Z,46.87
2018-12-07T03:56:16.733Z,50.10
2018-12-07T03:58:44.918Z,35.77
2018-12-07T04:01:13.166Z,49.53
2018-12-07T04:03:41.902Z,52.13
2018-12-07T04:06:10.353Z,50.97
2018-12-07T04:08:38.566Z,47.33
2018-12-07T04:11:06.905Z,52.30
2018-12-07T04:13:35.084Z,44.10
2018-12-07T04:16:03.419Z,48.60
2018-12-07T04:18:31.709Z,40.97
2018-12-07T04:20:59.912Z,43.63
2018-12-07T04:23:28.122Z,40.60
2018-12-07T04:25:56.375Z,40.50
2018-12-07T04:28:24.557Z,40.33
2018-12-07T04:30:52.845Z,45.23
2018-12-07T04:33:21.031Z,40.70
2018-12-07T04:35:49.234Z,42.20
2018-12-07T04:38:17.457Z,41.10
2018-12-07T04:40:45.638Z,43.73
2018-12-07T04:43:13.838Z,45.60
2018-12-07T04:45:42.047Z,40.30
2018-12-07T04:48:10.240Z,47.23
2018-12-07T04:50:38.425Z,41.50
2018-12-07T04:53:06.773Z,42.37
2018-12-07T04:55:34.960Z,39.63
2018-12-07T04:58:03.286Z,53.03
2018-12-07T05:00:31.738Z,41.90
2018-12-07T05:02:59.919Z,43.50
2018-12-07T05:05:28.288Z,49.70
2018-12-07T05:07:56.506Z,43.77
2018-12-07T05:10:24.694Z,41.57
2018-12-07T05:12:52.970Z,40.43
2018-12-07T05:15:21.228Z,40.57
2018-12-07T05:17:49.409Z,41.07
2018-12-07T05:20:17.591Z,35.93
2018-12-07T05:22:45.833Z,41.47
2018-12-07T05:25:14.020Z,37.93
2018-12-07T05:27:42.211Z,42.10
2018-12-07T05:30:10.432Z,36.47
2018-12-07T05:32:38.618Z,42.27
2018-12-07T05:35:06.795Z,40.37
2018-12-07T05:37:35.000Z,40.47
2018-12-07T05:40:03.356Z,42.13
2018-12-07T05:42:31.616Z,39.23
2018-12-07T05:44:59.881Z,39.30
2018-12-07T05:47:28.067Z,35.90
2018-12-07T05:49:56.265Z,38.20
2018-12-07T05:52:24.715Z,39.50
2018-12-07T05:54:52.893Z,40.03
2018-12-07T05:57:21.064Z,36.23
2018-12-07T05:59:49.336Z,38.93
2018-12-07T06:02:17.529Z,37.53
2018-12-07T06:04:45.804Z,35.43
2018-12-07T06:07:14.010Z,36.07
2018-12-07T06:09:42.189Z,30.60
2018-12-07T06:12:10.378Z,34.13
2018-12-07T06:14:38.694Z,38.90
2018-12-07T06:17:07.030Z,38.83
2018-12-07T06:19:35.222Z,40.00
2018-12-07T06:22:03.423Z,37.33
2018-12-07T06:24:31.605Z,37.13
2018-12-07T06:26:59.793Z,38.57
2018-12-07T06:29:28.139Z,41.93
2018-12-07T06:32:02.285Z,32.20
2018-12-07T06:34:30.484Z,35.67
2018-12-07T06:36:58.653Z,36.33
2018-12-07T06:39:26.846Z,39.47
2018-12-07T06:41:55.176Z,36.40
2018-12-07T06:44:23.354Z,40.10
2018-12-07T06:46:51.529Z,37.20
2018-12-07T06:49:19.748Z,36.70
2018-12-07T06:51:53.898Z,38.60
2018-12-07T06:54:22.105Z,35.43
2018-12-07T06:56:50.277Z,36.13
2018-12-07T06:59:18.458Z,32.03
2018-12-07T07:01:46.666Z,39.33
2018-12-07T07:04:14.865Z,39.33
2018-12-07T07:06:43.046Z,30.50
2018-12-07T07:09:11.250Z,37.90
2018-12-07T07:11:39.551Z,35.10
2018-12-07T07:14:07.745Z,27.80
2018-12-07T07:16:35.954Z,35.80
2018-12-07T07:19:04.127Z,28.40
2018-12-07T07:21:32.333Z,33.50
2018-12-07T07:24:00.610Z,29.70
2018-12-07T07:26:28.808Z,30.00
2018-12-07T07:28:57.004Z,37.07
2018-12-07T07:31:25.233Z,29.40
2018-12-07T07:33:53.400Z,31.73
2018-12-07T07:36:21.661Z,31.43
2018-12-07T07:38:49.845Z,31.57
2018-12-07T07:41:18.022Z,31.60
2018-12-07T07:43:46.201Z,34.33
2018-12-07T07:46:14.453Z,29.10
2018-12-07T07:48:42.623Z,31.73
2018-12-07T07:51:10.883Z,45.30
2018-12-07T07:53:39.082Z,30.93
2018-12-07T07:56:07.259Z,28.50
2018-12-07T07:58:35.429Z,37.63
2018-12-07T08:01:03.627Z,31.27
2018-12-07T08:03:31.803Z,34.20
2018-12-07T08:05:59.995Z,33.30
2018-12-07T08:08:28.201Z,39.60
2018-12-07T08:10:56.382Z,33.10
2018-12-07T08:13:24.581Z,34.97
2018-12-07T08:15:52.930Z,36.43
2018-12-07T08:18:21.102Z,36.70
2018-12-07T08:20:49.261Z,58.90
2018-12-07T08:23:17.557Z,59.03
2018-12-07T08:25:45.734Z,41.80
2018-12-07T08:28:13.911Z,45.30
2018-12-07T08:30:42.112Z,53.30
2018-12-07T08:33:10.281Z,46.33
2018-12-07T08:35:38.438Z,48.03
2018-12-07T08:38:06.630Z,47.30
2018-12-07T08:40:34.797Z,55.13
2018-12-07T08:43:02.968Z,44.50
2018-12-07T08:45:31.160Z,45.63
2018-12-07T08:47:59.322Z,47.17
2018-12-07T08:50:27.494Z,40.43
2018-12-07T08:52:55.773Z,51.27
2018-12-07T08:55:23.930Z,41.33
2018-12-07T08:57:52.099Z,46.97
2018-12-07T09:00:20.399Z,50.90
2018-12-07T09:02:48.621Z,46.03
2018-12-07T09:05:16.785Z,54.27
2018-12-07T09:07:45.084Z,47.07
2018-12-07T09:10:13.335Z,50.77
2018-12-07T09:12:41.741Z,52.57
2018-12-07T09:15:09.933Z,61.83
2018-12-07T09:17:38.109Z,60.10
2018-12-07T09:20:06.978Z,56.67
2018-12-07T09:22:35.247Z,53.93
2018-12-07T09:25:04.198Z,58.07
2018-12-07T09:27:32.358Z,69.80
2018-12-07T09:30:00.550Z,55.57
2018-12-07T09:32:28.733Z,68.43
2018-12-07T09:34:56.904Z,58.97
2018-12-07T09:37:25.098Z,60.83
2018-12-07T09:39:53.260Z,54.20
2018-12-07T09:42:21.433Z,51.57
2018-12-07T09:44:49.640Z,47.60
2018-12-07T09:47:17.809Z,49.87
2018-12-07T09:49:45.984Z,51.80
2018-12-07T09:52:14.293Z,54.53
2018-12-07T09:54:42.469Z,58.60
2018-12-07T09:57:10.633Z,53.00
2018-12-07T09:59:38.855Z,49.63
2018-12-07T10:02:07.029Z,53.43
2018-12-07T10:07:09.503Z,60.00
2018-12-07T10:09:37.672Z,52.10
2018-12-07T10:12:05.838Z,50.10
2018-12-07T10:14:34.026Z,58.13
2018-12-07T10:17:02.191Z,44.60
2018-12-07T10:19:30.366Z,47.03
2018-12-07T10:21:58.550Z,45.30
2018-12-07T10:24:26.821Z,48.47
2018-12-07T10:26:55.358Z,48.93
2018-12-07T10:29:23.553Z,60.80
2018-12-07T10:31:51.729Z,49.63
2018-12-07T10:34:19.898Z,56.27
2018-12-07T10:36:48.086Z,52.53
2018-12-07T10:39:16.256Z,59.67
2018-12-07T10:41:44.426Z,55.87
2018-12-07T10:44:12.729Z,54.27
2018-12-07T10:46:40.903Z,60.50
2018-12-07T10:49:09.119Z,48.63
2018-12-07T10:51:37.459Z,57.70
2018-12-07T10:54:05.634Z,63.53
2018-12-07T10:56:33.910Z,68.40
2018-12-07T10:59:02.112Z,48.00
2018-12-07T11:01:35.890Z,57.70
2018-12-07T11:17:30.374Z,49.73
2018-12-07T11:20:04.179Z,43.70
2018-12-07T11:22:37.980Z,55.60
2018-12-07T11:25:11.677Z,51.77
2018-12-07T11:27:45.471Z,46.63
2018-12-07T11:30:19.173Z,41.70
2018-12-07T11:32:52.897Z,43.67
2018-12-07T11:35:23.148Z,37.20
2018-12-07T11:37:51.319Z,41.23
2018-12-07T11:40:19.531Z,40.40
2018-12-07T11:42:47.702Z,37.47
2018-12-07T11:45:15.876Z,33.70
2018-12-07T11:47:44.097Z,38.53
2018-12-07T11:50:12.293Z,35.00
2018-12-07T11:52:40.481Z,34.77
2018-12-07T11:55:08.753Z,38.03
2018-12-07T11:57:37.045Z,34.10
2018-12-07T12:00:06.403Z,29.97
2018-12-07T12:02:34.721Z,32.90
2018-12-07T12:05:02.965Z,35.90
2018-12-07T12:07:32.736Z,36.00
2018-12-07T12:10:01.185Z,35.67
2018-12-07T12:12:29.370Z,33.03
2018-12-07T12:14:57.560Z,28.83
2018-12-07T12:17:25.800Z,31.97
2018-12-07T12:19:54.070Z,34.07
2018-12-07T12:22:22.245Z,29.60
2018-12-07T12:24:50.441Z,36.87
2018-12-07T12:27:18.624Z,30.37
2018-12-07T12:29:46.797Z,35.40
2018-12-07T12:32:15.004Z,28.13
2018-12-07T12:34:43.298Z,34.43
2018-12-07T12:37:11.566Z,27.20
2018-12-07T12:39:39.799Z,31.63
2018-12-07T12:42:07.971Z,32.53
2018-12-07T12:44:36.151Z,27.93
2018-12-07T12:47:04.681Z,30.80
2018-12-07T12:49:32.869Z,27.17
2018-12-07T12:52:01.048Z,31.63
2018-12-07T12:54:29.259Z,29.83
2018-12-07T12:56:57.543Z,31.20
2018-12-07T12:59:25.725Z,36.60
2018-12-07T13:01:53.970Z,24.70
2018-12-07T13:04:22.174Z,25.67
2018-12-07T13:06:50.358Z,37.00
2018-12-07T13:09:19.070Z,25.43
2018-12-07T13:11:47.250Z,25.80
2018-12-07T13:14:15.429Z,29.87
2018-12-07T13:16:43.701Z,23.17
2018-12-07T13:19:11.886Z,21.90
2018-12-07T13:21:40.070Z,25.20
2018-12-07T13:24:08.336Z,21.50
2018-12-07T13:26:36.513Z,21.87
2018-12-07T13:29:04.694Z,26.57
2018-12-07T13:31:32.894Z,23.90
2018-12-07T13:34:01.109Z,22.40
2018-12-07T13:36:29.279Z,22.63
2018-12-07T13:38:57.536Z,23.70
2018-12-07T13:41:27.533Z,24.97
2018-12-07T13:43:56.001Z,24.60
2018-12-07T13:46:24.336Z,23.13
2018-12-07T13:48:52.752Z,21.33
2018-12-07T13:51:21.265Z,20.90
2018-12-07T13:53:49.669Z,20.47
2018-12-07T13:56:17.907Z,23.90
2018-12-07T13:58:46.479Z,21.70
2018-12-07T14:01:14.907Z,18.90
2018-12-07T14:03:43.381Z,21.37
2018-12-07T14:06:11.828Z,20.23
2018-12-07T14:08:40.362Z,24.67
2018-12-07T14:11:08.861Z,24.70
2018-12-07T14:13:37.252Z,20.80
2018-12-07T14:16:05.625Z,19.17
2018-12-07T14:18:34.027Z,20.97
2018-12-07T14:21:02.476Z,22.27
2018-12-07T14:23:31.207Z,21.53
2018-12-07T14:25:59.760Z,21.23
2018-12-07T14:28:28.034Z,20.87
2018-12-07T14:30:56.455Z,18.60
2018-12-07T14:33:24.926Z,19.43
2018-12-07T14:35:53.360Z,23.10
2018-12-07T14:38:21.717Z,18.27
2018-12-07T14:40:49.994Z,17.23
2018-12-07T14:43:18.307Z,16.90
2018-12-07T14:45:46.631Z,17.20
2018-12-07T14:48:14.929Z,20.60
2018-12-07T14:50:43.311Z,19.57
2018-12-07T14:53:11.671Z,23.13
2018-12-07T14:55:39.959Z,18.10
2018-12-07T14:58:08.200Z,17.50
2018-12-07T15:00:36.698Z,25.30
2018-12-07T15:03:05.370Z,24.23
2018-12-07T15:05:33.669Z,18.30
2018-12-07T15:08:01.873Z,19.40
2018-12-07T15:10:30.216Z,19.47
2018-12-07T15:12:58.775Z,22.30
2018-12-07T15:15:27.172Z,22.80
2018-12-07T15:17:55.438Z,22.07
2018-12-07T15:20:23.813Z,26.20
2018-12-07T15:22:52.160Z,22.13
2018-12-07T15:25:20.463Z,22.63
2018-12-07T15:27:49.275Z,23.03
2018-12-07T15:30:17.563Z,56.53
2018-12-07T15:32:45.899Z,25.13
2018-12-07T15:35:14.305Z,23.90
2018-12-07T15:37:42.627Z,31.00
2018-12-07T15:40:10.907Z,57.63
2018-12-07T15:42:39.907Z,29.00
2018-12-07T15:45:08.602Z,26.00
2018-12-07T15:47:36.807Z,24.90
2018-12-07T15:50:06.142Z,24.83
2018-12-07T15:52:34.835Z,24.93
2018-12-07T15:55:03.489Z,27.50
2018-12-07T15:57:31.992Z,34.27
2018-12-07T16:00:00.252Z,26.53
2018-12-07T16:02:28.847Z,23.70
2018-12-07T16:04:57.209Z,27.17
2018-12-07T16:07:25.506Z,22.83
2018-12-07T16:09:53.823Z,24.93
2018-12-07T16:12:22.239Z,28.47
2018-12-07T16:14:50.595Z,27.30
2018-12-07T16:17:18.904Z,30.93
2018-12-07T16:19:47.199Z,29.90
2018-12-07T16:22:15.597Z,32.17
2018-12-07T16:24:44.087Z,27.40
2018-12-07T16:27:12.394Z,32.37
2018-12-07T16:29:40.697Z,29.07
2018-12-07T16:32:08.943Z,36.23
2018-12-07T16:34:37.373Z,32.47
2018-12-07T16:37:05.704Z,32.00
2018-12-07T16:39:34.051Z,34.03
2018-12-07T16:42:02.286Z,30.80
2018-12-07T16:44:30.712Z,31.30
2018-12-07T16:46:58.939Z,25.67
2018-12-07T16:49:27.245Z,32.07
2018-12-07T16:51:55.853Z,29.30
2018-12-07T16:54:24.294Z,28.03
2018-12-07T16:56:52.677Z,34.03
2018-12-07T16:59:21.028Z,33.30
2018-12-07T17:01:49.415Z,30.17
2018-12-07T17:04:17.783Z,23.67
2018-12-07T17:06:46.259Z,28.37
2018-12-07T17:09:14.550Z,37.00
2018-12-07T17:11:42.949Z,31.90
2018-12-07T17:14:11.382Z,30.20
2018-12-07T17:16:39.893Z,32.27
2018-12-07T17:19:08.197Z,29.37
2018-12-07T17:21:36.603Z,30.57
2018-12-07T17:24:05.132Z,28.87
2018-12-07T17:26:33.608Z,29.80
2018-12-07T17:29:03.154Z,29.90
2018-12-07T17:31:31.378Z,31.80
2018-12-07T17:33:59.888Z,28.63
2018-12-07T17:36:28.253Z,26.43
2018-12-07T17:38:56.504Z,25.47
2018-12-07T17:41:24.799Z,26.40
2018-12-07T17:43:53.327Z,36.97
2018-12-07T17:46:21.825Z,29.13
2018-12-07T17:48:50.879Z,28.00
2018-12-07T17:51:19.226Z,25.33
2018-12-07T17:53:47.392Z,28.73
2018-12-07T17:56:15.891Z,30.63
2018-12-07T17:58:44.312Z,35.03
2018-12-07T18:01:12.669Z,41.97
2018-12-07T18:03:40.869Z,32.73
2018-12-07T18:06:09.319Z,32.67
2018-12-07T18:08:37.827Z,32.03
2018-12-07T18:11:06.351Z,28.07
2018-12-07T18:13:34.893Z,37.43
2018-12-07T18:16:03.118Z,42.17
2018-12-07T18:18:31.392Z,36.70
2018-12-07T18:20:59.597Z,27.53
2018-12-07T18:23:27.876Z,27.77
2018-12-07T18:25:56.178Z,27.10
2018-12-07T18:28:24.552Z,34.50
2018-12-07T18:30:52.869Z,45.23
2018-12-07T18:33:21.299Z,38.20
2018-12-07T18:35:49.839Z,33.40
2018-12-07T18:38:18.236Z,44.30
2018-12-07T18:40:46.588Z,39.20
2018-12-07T18:43:14.968Z,27.60
2018-12-07T18:45:43.349Z,29.83
2018-12-07T18:48:12.088Z,25.93
2018-12-07T18:50:40.795Z,25.90
2018-12-07T18:53:09.275Z,27.43
2018-12-07T18:55:37.557Z,26.90
2018-12-07T18:58:06.039Z,38.27
2018-12-07T19:00:34.353Z,28.67
2018-12-07T19:03:02.692Z,27.20
2018-12-07T19:05:31.234Z,28.07
2018-12-07T19:07:59.669Z,27.60
2018-12-07T19:10:28.169Z,27.93
2018-12-07T19:12:56.458Z,29.60
2018-12-07T19:15:24.804Z,31.67
2018-12-07T19:17:53.186Z,31.40
2018-12-07T19:20:21.848Z,36.53
2018-12-07T19:22:50.389Z,34.40
2018-12-07T19:25:19.513Z,33.07
2018-12-07T19:27:48.142Z,34.03
2018-12-07T19:30:16.589Z,30.23
2018-12-07T19:32:44.928Z,38.77
2018-12-07T19:35:13.648Z,31.10
2018-12-07T19:37:42.123Z,35.97
2018-12-07T19:40:10.330Z,37.90
2018-12-07T19:42:38.519Z,36.37
2018-12-07T19:45:08.905Z,29.63
2018-12-07T19:47:37.181Z,35.27
2018-12-07T19:50:07.356Z,35.23
2018-12-07T19:52:35.669Z,54.57
2018-12-07T19:55:05.367Z,31.67
2018-12-07T19:57:33.834Z,44.63
2018-12-07T20:00:02.121Z,32.70
2018-12-07T20:02:30.682Z,32.23
2018-12-07T20:04:58.878Z,36.93
2018-12-07T20:07:27.227Z,40.67
2018-12-07T20:09:55.687Z,43.77
2018-12-07T20:12:24.037Z,32.83
2018-12-07T20:14:52.236Z,47.00
2018-12-07T20:17:20.427Z,36.80
2018-12-07T20:19:48.668Z,25.03
2018-12-07T20:22:16.958Z,32.03
2018-12-07T20:24:45.244Z,31.27
2018-12-07T20:27:14.292Z,28.07
2018-12-07T20:29:42.851Z,30.93
2018-12-07T20:32:11.188Z,29.90
2018-12-07T20:34:39.400Z,40.10
2018-12-07T20:37:08.197Z,27.70
2018-12-07T20:39:36.706Z,36.83
2018-12-07T20:42:05.047Z,35.57
2018-12-07T20:44:33.232Z,36.43
2018-12-07T20:47:01.505Z,35.30
2018-12-07T20:49:29.933Z,29.67
2018-12-07T20:51:58.358Z,38.47
2018-12-07T20:54:27.659Z,29.20
2018-12-07T20:56:55.874Z,41.33
2018-12-07T20:59:24.154Z,32.80
2018-12-07T21:01:52.426Z,36.83
2018-12-07T21:04:32.060Z,32.90
2018-12-07T21:14:02.857Z,31.07
2018-12-07T21:19:47.796Z,31.53
2018-12-07T21:22:16.217Z,33.47
2018-12-07T21:24:44.743Z,35.00
2018-12-07T21:27:13.283Z,28.50
2018-12-07T21:29:41.833Z,32.40
2018-12-07T21:32:15.397Z,32.40
2018-12-07T21:35:00.007Z,28.67
2018-12-07T21:37:28.562Z,35.80
2018-12-07T21:40:03.038Z,33.13
2018-12-07T21:42:31.328Z,34.47
2018-12-07T21:44:59.523Z,36.93
2018-12-07T21:47:51.766Z,31.00
2018-12-07T21:50:20.272Z,32.13
2018-12-07T21:52:48.786Z,26.37
2018-12-07T21:55:17.209Z,36.80
2018-12-07T21:57:45.676Z,31.63
2018-12-07T22:00:14.138Z,35.60
2018-12-07T22:02:42.420Z,35.87
2018-12-07T22:05:10.875Z,30.30
2018-12-07T22:07:39.395Z,32.00
2018-12-07T22:10:07.839Z,27.37
2018-12-07T22:12:36.499Z,36.33
2018-12-07T22:15:05.555Z,33.30
2018-12-07T22:17:34.563Z,28.10
2018-12-07T22:20:03.330Z,32.40
2018-12-07T22:22:31.777Z,32.80
2018-12-07T22:25:00.523Z,30.53
2018-12-07T22:27:28.763Z,33.67
2018-12-07T22:29:57.109Z,30.27
2018-12-07T22:32:25.554Z,27.23
2018-12-07T22:34:54.030Z,26.97
2018-12-07T22:37:22.457Z,31.70
2018-12-07T22:39:50.957Z,37.47
2018-12-07T22:42:19.479Z,28.07
2018-12-07T22:44:47.833Z,26.40
2018-12-07T22:47:16.188Z,26.40
2018-12-07T22:49:44.671Z,24.83
2018-12-07T22:52:12.886Z,27.20
2018-12-07T22:54:41.089Z,29.00
2018-12-07T22:57:09.262Z,32.93
2018-12-07T22:59:37.424Z,29.43
2018-12-07T23:02:05.745Z,38.27
2018-12-07T23:04:33.925Z,32.53
2018-12-07T23:07:02.124Z,31.07
2018-12-07T23:09:30.861Z,29.43
2018-12-07T23:11:59.034Z,28.43
2018-12-07T23:14:27.240Z,37.73
2018-12-07T23:16:55.434Z,34.77
2018-12-07T23:19:23.637Z,31.23
2018-12-07T23:21:51.934Z,28.73
2018-12-07T23:24:20.145Z,29.67
2018-12-07T23:26:48.343Z,28.73
2018-12-07T23:29:21.281Z,30.47
2018-12-07T23:31:49.445Z,31.77
2018-12-07T23:34:17.613Z,28.37
2018-12-07T23:36:45.798Z,28.70
2018-12-07T23:39:13.970Z,27.83
2018-12-07T23:41:42.182Z,30.40
2018-12-07T23:44:10.368Z,32.33
2018-12-07T23:46:38.550Z,25.10
2018-12-07T23:49:06.722Z,28.53
2018-12-07T23:51:35.767Z,25.70
2018-12-07T23:54:04.094Z,30.50
2018-12-07T23:56:32.268Z,27.90
2018-12-07T23:59:00.464Z,28.63
